sensor_id;sensor_type;location;lat;lon;timestamp;P1;durP1;ratioP1;P2;durP2;ratioP2
5491;SDS011;2768;53.540;10.224;2023-09-30T00:02:52;9.40;;;3.67;;
5491;SDS011;2768;53.540;10.224;2023-09-30T00:08:46;15.33;;;3.93;;
5491;SDS011;2768;53.540;10.224;2023-09-30T00:14:40;8.13;;;3.53;;
5491;SDS011;2768;53.540;10.224;2023-09-30T00:20:34;12.33;;;3.10;;
5491;SDS011;2768;53.540;10.224;2023-09-30T00:26:27;12.20;;;3.40;;
5491;SDS011;2768;53.540;10.224;2023-09-30T00:32:22;14.80;;;4.03;;
5491;SDS011;2768;53.540;10.224;2023-09-30T00:38:16;12.20;;;3.17;;
5491;SDS011;2768;53.540;10.224;2023-09-30T00:44:09;11.27;;;4.10;;
5491;SDS011;2768;53.540;10.224;2023-09-30T00:50:05;14.80;;;4.30;;
5491;SDS011;2768;53.540;10.224;2023-09-30T00:56:02;13.30;;;3.73;;
5491;SDS011;2768;53.540;10.224;2023-09-30T01:01:56;10.47;;;3.23;;
5491;SDS011;2768;53.540;10.224;2023-09-30T01:07:53;9.60;;;3.40;;
5491;SDS011;2768;53.540;10.224;2023-09-30T01:13:47;11.87;;;3.60;;
5491;SDS011;2768;53.540;10.224;2023-09-30T01:19:41;12.80;;;4.03;;
5491;SDS011;2768;53.540;10.224;2023-09-30T01:25:36;10.10;;;3.50;;
5491;SDS011;2768;53.540;10.224;2023-09-30T01:31:29;11.83;;;3.73;;
5491;SDS011;2768;53.540;10.224;2023-09-30T01:37:26;8.80;;;3.37;;
5491;SDS011;2768;53.540;10.224;2023-09-30T01:43:21;10.50;;;3.53;;
5491;SDS011;2768;53.540;10.224;2023-09-30T01:49:15;9.60;;;3.13;;
5491;SDS011;2768;53.540;10.224;2023-09-30T01:55:09;10.80;;;3.00;;
5491;SDS011;2768;53.540;10.224;2023-09-30T02:01:04;10.80;;;3.80;;
5491;SDS011;2768;53.540;10.224;2023-09-30T02:06:58;9.47;;;3.40;;
5491;SDS011;2768;53.540;10.224;2023-09-30T02:12:51;10.10;;;3.30;;
5491;SDS011;2768;53.540;10.224;2023-09-30T02:18:46;10.17;;;4.10;;
5491;SDS011;2768;53.540;10.224;2023-09-30T02:24:42;15.93;;;3.77;;
5491;SDS011;2768;53.540;10.224;2023-09-30T02:30:35;10.87;;;3.60;;
5491;SDS011;2768;53.540;10.224;2023-09-30T02:36:30;8.60;;;3.00;;
5491;SDS011;2768;53.540;10.224;2023-09-30T02:42:23;8.80;;;3.70;;
5491;SDS011;2768;53.540;10.224;2023-09-30T02:48:17;7.93;;;3.37;;
5491;SDS011;2768;53.540;10.224;2023-09-30T02:54:12;9.80;;;2.90;;
5491;SDS011;2768;53.540;10.224;2023-09-30T03:00:08;8.80;;;3.73;;
5491;SDS011;2768;53.540;10.224;2023-09-30T03:06:12;13.33;;;3.60;;
5491;SDS011;2768;53.540;10.224;2023-09-30T03:12:08;8.90;;;3.70;;
5491;SDS011;2768;53.540;10.224;2023-09-30T03:18:02;7.77;;;4.33;;
5491;SDS011;2768;53.540;10.224;2023-09-30T03:23:56;8.93;;;3.03;;
5491;SDS011;2768;53.540;10.224;2023-09-30T03:29:50;14.40;;;4.03;;
5491;SDS011;2768;53.540;10.224;2023-09-30T03:35:44;12.80;;;3.97;;
5491;SDS011;2768;53.540;10.224;2023-09-30T03:41:37;11.87;;;3.77;;
5491;SDS011;2768;53.540;10.224;2023-09-30T03:47:32;7.60;;;3.30;;
5491;SDS011;2768;53.540;10.224;2023-09-30T03:53:27;14.20;;;3.60;;
5491;SDS011;2768;53.540;10.224;2023-09-30T03:59:20;12.80;;;3.87;;
5491;SDS011;2768;53.540;10.224;2023-09-30T04:05:15;13.90;;;3.37;;
5491;SDS011;2768;53.540;10.224;2023-09-30T04:11:08;9.80;;;4.10;;
5491;SDS011;2768;53.540;10.224;2023-09-30T04:17:02;14.63;;;4.90;;
5491;SDS011;2768;53.540;10.224;2023-09-30T04:22:57;10.80;;;3.80;;
5491;SDS011;2768;53.540;10.224;2023-09-30T04:28:50;14.80;;;5.20;;
5491;SDS011;2768;53.540;10.224;2023-09-30T04:34:44;10.30;;;3.97;;
5491;SDS011;2768;53.540;10.224;2023-09-30T04:40:40;14.73;;;5.33;;
5491;SDS011;2768;53.540;10.224;2023-09-30T04:46:35;12.77;;;5.17;;
5491;SDS011;2768;53.540;10.224;2023-09-30T04:52:32;18.40;;;4.50;;
5491;SDS011;2768;53.540;10.224;2023-09-30T04:58:26;15.23;;;4.03;;
5491;SDS011;2768;53.540;10.224;2023-09-30T05:04:21;12.77;;;4.20;;
5491;SDS011;2768;53.540;10.224;2023-09-30T05:10:15;14.60;;;4.83;;
5491;SDS011;2768;53.540;10.224;2023-09-30T05:16:10;8.57;;;3.70;;
5491;SDS011;2768;53.540;10.224;2023-09-30T05:22:05;12.50;;;5.03;;
5491;SDS011;2768;53.540;10.224;2023-09-30T05:27:58;14.30;;;3.80;;
5491;SDS011;2768;53.540;10.224;2023-09-30T05:33:53;11.37;;;3.70;;
5491;SDS011;2768;53.540;10.224;2023-09-30T05:39:47;12.77;;;4.90;;
5491;SDS011;2768;53.540;10.224;2023-09-30T05:45:40;11.23;;;4.20;;
5491;SDS011;2768;53.540;10.224;2023-09-30T05:51:42;11.97;;;3.80;;
5491;SDS011;2768;53.540;10.224;2023-09-30T05:57:36;11.60;;;3.83;;
5491;SDS011;2768;53.540;10.224;2023-09-30T06:03:29;8.90;;;3.87;;
5491;SDS011;2768;53.540;10.224;2023-09-30T06:09:25;13.03;;;3.97;;
5491;SDS011;2768;53.540;10.224;2023-09-30T06:15:22;12.00;;;3.87;;
5491;SDS011;2768;53.540;10.224;2023-09-30T06:21:18;10.00;;;3.57;;
5491;SDS011;2768;53.540;10.224;2023-09-30T06:27:13;11.50;;;3.97;;
5491;SDS011;2768;53.540;10.224;2023-09-30T06:33:07;13.27;;;4.37;;
5491;SDS011;2768;53.540;10.224;2023-09-30T06:39:03;10.43;;;3.87;;
5491;SDS011;2768;53.540;10.224;2023-09-30T06:44:59;14.83;;;4.00;;
5491;SDS011;2768;53.540;10.224;2023-09-30T06:50:52;12.57;;;4.30;;
5491;SDS011;2768;53.540;10.224;2023-09-30T06:56:46;11.40;;;3.30;;
5491;SDS011;2768;53.540;10.224;2023-09-30T07:02:41;10.77;;;3.73;;
5491;SDS011;2768;53.540;10.224;2023-09-30T07:08:36;8.63;;;4.10;;
5491;SDS011;2768;53.540;10.224;2023-09-30T07:14:29;12.67;;;3.93;;
5491;SDS011;2768;53.540;10.224;2023-09-30T07:20:24;7.20;;;3.00;;
5491;SDS011;2768;53.540;10.224;2023-09-30T07:26:17;10.93;;;3.63;;
5491;SDS011;2768;53.540;10.224;2023-09-30T07:32:15;9.93;;;4.20;;
5491;SDS011;2768;53.540;10.224;2023-09-30T07:38:10;9.63;;;3.57;;
5491;SDS011;2768;53.540;10.224;2023-09-30T07:44:03;11.60;;;3.50;;
5491;SDS011;2768;53.540;10.224;2023-09-30T07:49:57;17.73;;;4.80;;
5491;SDS011;2768;53.540;10.224;2023-09-30T07:55:52;14.97;;;3.70;;
5491;SDS011;2768;53.540;10.224;2023-09-30T08:01:47;9.47;;;3.60;;
5491;SDS011;2768;53.540;10.224;2023-09-30T08:07:41;13.67;;;3.70;;
5491;SDS011;2768;53.540;10.224;2023-09-30T08:13:35;16.20;;;3.90;;
5491;SDS011;2768;53.540;10.224;2023-09-30T08:19:29;14.97;;;3.50;;
5491;SDS011;2768;53.540;10.224;2023-09-30T08:25:22;9.47;;;3.10;;
5491;SDS011;2768;53.540;10.224;2023-09-30T08:31:18;9.40;;;2.73;;
5491;SDS011;2768;53.540;10.224;2023-09-30T08:37:13;13.43;;;3.30;;
5491;SDS011;2768;53.540;10.224;2023-09-30T08:43:06;9.90;;;3.30;;
5491;SDS011;2768;53.540;10.224;2023-09-30T08:49:05;9.33;;;2.97;;
5491;SDS011;2768;53.540;10.224;2023-09-30T08:54:59;10.60;;;2.70;;
5491;SDS011;2768;53.540;10.224;2023-09-30T09:00:52;12.27;;;3.93;;
5491;SDS011;2768;53.540;10.224;2023-09-30T09:06:47;14.30;;;3.60;;
5491;SDS011;2768;53.540;10.224;2023-09-30T09:12:40;9.13;;;3.03;;
5491;SDS011;2768;53.540;10.224;2023-09-30T09:18:35;8.60;;;2.70;;
5491;SDS011;2768;53.540;10.224;2023-09-30T09:24:31;12.87;;;2.53;;
5491;SDS011;2768;53.540;10.224;2023-09-30T09:30:26;11.53;;;3.33;;
5491;SDS011;2768;53.540;10.224;2023-09-30T09:36:20;7.63;;;2.67;;
5491;SDS011;2768;53.540;10.224;2023-09-30T09:42:15;16.00;;;3.67;;
5491;SDS011;2768;53.540;10.224;2023-09-30T09:48:18;10.40;;;2.20;;
5491;SDS011;2768;53.540;10.224;2023-09-30T09:54:11;16.37;;;2.73;;
5491;SDS011;2768;53.540;10.224;2023-09-30T10:00:07;11.63;;;2.97;;
5491;SDS011;2768;53.540;10.224;2023-09-30T10:06:05;6.80;;;2.07;;
5491;SDS011;2768;53.540;10.224;2023-09-30T10:12:00;8.60;;;2.30;;
5491;SDS011;2768;53.540;10.224;2023-09-30T10:17:58;10.00;;;3.50;;
5491;SDS011;2768;53.540;10.224;2023-09-30T10:23:53;6.13;;;2.30;;
5491;SDS011;2768;53.540;10.224;2023-09-30T10:30:21;10.43;;;2.50;;
5491;SDS011;2768;53.540;10.224;2023-09-30T10:36:16;8.80;;;2.90;;
5491;SDS011;2768;53.540;10.224;2023-09-30T10:48:42;7.27;;;2.13;;
5491;SDS011;2768;53.540;10.224;2023-09-30T10:54:38;10.07;;;2.97;;
5491;SDS011;2768;53.540;10.224;2023-09-30T11:00:32;10.77;;;3.00;;
5491;SDS011;2768;53.540;10.224;2023-09-30T11:06:25;5.73;;;2.30;;
5491;SDS011;2768;53.540;10.224;2023-09-30T11:12:20;11.17;;;2.50;;
5491;SDS011;2768;53.540;10.224;2023-09-30T11:18:14;7.40;;;2.00;;
5491;SDS011;2768;53.540;10.224;2023-09-30T11:24:08;5.93;;;2.23;;
5491;SDS011;2768;53.540;10.224;2023-09-30T11:30:03;7.50;;;2.60;;
5491;SDS011;2768;53.540;10.224;2023-09-30T11:36:00;6.97;;;2.10;;
5491;SDS011;2768;53.540;10.224;2023-09-30T11:41:55;4.53;;;2.37;;
5491;SDS011;2768;53.540;10.224;2023-09-30T11:47:51;9.63;;;2.57;;
5491;SDS011;2768;53.540;10.224;2023-09-30T11:53:44;6.53;;;2.00;;
5491;SDS011;2768;53.540;10.224;2023-09-30T11:59:38;4.80;;;1.60;;
5491;SDS011;2768;53.540;10.224;2023-09-30T12:05:34;7.53;;;2.07;;
5491;SDS011;2768;53.540;10.224;2023-09-30T12:11:28;11.30;;;2.07;;
5491;SDS011;2768;53.540;10.224;2023-09-30T12:17:21;4.60;;;2.03;;
5491;SDS011;2768;53.540;10.224;2023-09-30T12:23:15;5.67;;;1.97;;
5491;SDS011;2768;53.540;10.224;2023-09-30T12:29:09;5.33;;;1.80;;
5491;SDS011;2768;53.540;10.224;2023-09-30T12:35:02;7.57;;;2.17;;
5491;SDS011;2768;53.540;10.224;2023-09-30T12:40:57;5.03;;;1.40;;
5491;SDS011;2768;53.540;10.224;2023-09-30T12:46:52;9.17;;;1.80;;
5491;SDS011;2768;53.540;10.224;2023-09-30T12:52:45;7.73;;;2.47;;
5491;SDS011;2768;53.540;10.224;2023-09-30T12:58:39;6.97;;;2.03;;
5491;SDS011;2768;53.540;10.224;2023-09-30T13:04:33;5.60;;;1.40;;
5491;SDS011;2768;53.540;10.224;2023-09-30T13:10:26;6.00;;;1.60;;
5491;SDS011;2768;53.540;10.224;2023-09-30T13:16:23;8.47;;;1.90;;
5491;SDS011;2768;53.540;10.224;2023-09-30T13:22:16;4.93;;;2.00;;
5491;SDS011;2768;53.540;10.224;2023-09-30T13:28:10;2.80;;;1.43;;
5491;SDS011;2768;53.540;10.224;2023-09-30T13:34:04;5.87;;;2.10;;
5491;SDS011;2768;53.540;10.224;2023-09-30T13:39:57;6.33;;;1.50;;
5491;SDS011;2768;53.540;10.224;2023-09-30T13:45:51;4.70;;;1.67;;
5491;SDS011;2768;53.540;10.224;2023-09-30T13:51:46;7.77;;;2.60;;
5491;SDS011;2768;53.540;10.224;2023-09-30T13:57:39;5.97;;;1.97;;
5491;SDS011;2768;53.540;10.224;2023-09-30T14:03:32;4.63;;;1.50;;
5491;SDS011;2768;53.540;10.224;2023-09-30T14:09:27;8.30;;;1.83;;
5491;SDS011;2768;53.540;10.224;2023-09-30T14:15:27;4.30;;;1.53;;
5491;SDS011;2768;53.540;10.224;2023-09-30T14:21:20;5.10;;;1.97;;
5491;SDS011;2768;53.540;10.224;2023-09-30T14:27:14;7.40;;;2.40;;
5491;SDS011;2768;53.540;10.224;2023-09-30T14:33:07;9.00;;;1.90;;
5491;SDS011;2768;53.540;10.224;2023-09-30T14:39:02;7.50;;;2.00;;
5491;SDS011;2768;53.540;10.224;2023-09-30T14:45:07;6.53;;;1.80;;
5491;SDS011;2768;53.540;10.224;2023-09-30T14:51:02;10.20;;;1.70;;
5491;SDS011;2768;53.540;10.224;2023-09-30T14:56:57;4.07;;;1.93;;
5491;SDS011;2768;53.540;10.224;2023-09-30T15:02:51;5.60;;;1.67;;
5491;SDS011;2768;53.540;10.224;2023-09-30T15:08:46;2.67;;;1.87;;
5491;SDS011;2768;53.540;10.224;2023-09-30T15:14:39;7.20;;;2.20;;
5491;SDS011;2768;53.540;10.224;2023-09-30T15:20:38;5.33;;;2.47;;
5491;SDS011;2768;53.540;10.224;2023-09-30T15:26:32;8.00;;;2.33;;
5491;SDS011;2768;53.540;10.224;2023-09-30T15:32:26;13.90;;;2.40;;
5491;SDS011;2768;53.540;10.224;2023-09-30T15:38:21;6.30;;;2.50;;
5491;SDS011;2768;53.540;10.224;2023-09-30T15:44:15;4.60;;;2.20;;
5491;SDS011;2768;53.540;10.224;2023-09-30T15:50:09;4.53;;;2.53;;
5491;SDS011;2768;53.540;10.224;2023-09-30T15:56:05;7.87;;;2.30;;
5491;SDS011;2768;53.540;10.224;2023-09-30T16:01:58;9.17;;;3.40;;
5491;SDS011;2768;53.540;10.224;2023-09-30T16:07:51;8.10;;;4.00;;
5491;SDS011;2768;53.540;10.224;2023-09-30T16:13:46;6.13;;;2.10;;
5491;SDS011;2768;53.540;10.224;2023-09-30T16:19:39;7.23;;;2.30;;
5491;SDS011;2768;53.540;10.224;2023-09-30T16:25:32;7.83;;;3.40;;
5491;SDS011;2768;53.540;10.224;2023-09-30T16:31:28;8.07;;;3.37;;
5491;SDS011;2768;53.540;10.224;2023-09-30T16:37:21;5.90;;;2.10;;
5491;SDS011;2768;53.540;10.224;2023-09-30T16:43:15;5.37;;;1.87;;
5491;SDS011;2768;53.540;10.224;2023-09-30T16:49:10;6.33;;;2.37;;
5491;SDS011;2768;53.540;10.224;2023-09-30T16:55:03;12.20;;;4.80;;
5491;SDS011;2768;53.540;10.224;2023-09-30T17:00:59;11.20;;;2.47;;
5491;SDS011;2768;53.540;10.224;2023-09-30T17:06:53;6.83;;;2.47;;
5491;SDS011;2768;53.540;10.224;2023-09-30T17:12:47;11.13;;;2.50;;
5491;SDS011;2768;53.540;10.224;2023-09-30T17:18:41;8.73;;;2.50;;
5491;SDS011;2768;53.540;10.224;2023-09-30T17:24:36;6.00;;;2.00;;
5491;SDS011;2768;53.540;10.224;2023-09-30T17:30:29;11.60;;;3.10;;
5491;SDS011;2768;53.540;10.224;2023-09-30T17:36:32;6.90;;;2.70;;
5491;SDS011;2768;53.540;10.224;2023-09-30T17:42:27;5.03;;;2.57;;
5491;SDS011;2768;53.540;10.224;2023-09-30T17:48:20;7.33;;;3.63;;
5491;SDS011;2768;53.540;10.224;2023-09-30T17:54:14;5.83;;;2.60;;
5491;SDS011;2768;53.540;10.224;2023-09-30T18:00:09;8.47;;;2.77;;
5491;SDS011;2768;53.540;10.224;2023-09-30T18:06:03;4.57;;;2.17;;
5491;SDS011;2768;53.540;10.224;2023-09-30T18:11:57;6.17;;;2.37;;
5491;SDS011;2768;53.540;10.224;2023-09-30T18:17:52;6.97;;;2.40;;
5491;SDS011;2768;53.540;10.224;2023-09-30T18:24:03;8.60;;;4.00;;
5491;SDS011;2768;53.540;10.224;2023-09-30T18:29:56;4.83;;;2.23;;
5491;SDS011;2768;53.540;10.224;2023-09-30T18:35:51;3.83;;;2.07;;
5491;SDS011;2768;53.540;10.224;2023-09-30T18:41:44;5.10;;;2.33;;
5491;SDS011;2768;53.540;10.224;2023-09-30T18:47:37;11.80;;;3.10;;
5491;SDS011;2768;53.540;10.224;2023-09-30T18:53:33;6.90;;;2.73;;
5491;SDS011;2768;53.540;10.224;2023-09-30T18:59:26;6.07;;;2.67;;
5491;SDS011;2768;53.540;10.224;2023-09-30T19:05:19;8.23;;;3.20;;
5491;SDS011;2768;53.540;10.224;2023-09-30T19:11:14;6.50;;;3.13;;
5491;SDS011;2768;53.540;10.224;2023-09-30T19:17:08;6.17;;;2.70;;
5491;SDS011;2768;53.540;10.224;2023-09-30T19:23:02;8.83;;;4.10;;
5491;SDS011;2768;53.540;10.224;2023-09-30T19:28:57;6.50;;;3.80;;
5491;SDS011;2768;53.540;10.224;2023-09-30T19:34:53;11.33;;;6.93;;
5491;SDS011;2768;53.540;10.224;2023-09-30T19:40:46;10.00;;;5.90;;
5491;SDS011;2768;53.540;10.224;2023-09-30T19:46:41;10.93;;;4.47;;
5491;SDS011;2768;53.540;10.224;2023-09-30T19:52:34;4.43;;;2.70;;
5491;SDS011;2768;53.540;10.224;2023-09-30T19:58:29;6.60;;;3.10;;
5491;SDS011;2768;53.540;10.224;2023-09-30T20:04:23;3.67;;;2.47;;
5491;SDS011;2768;53.540;10.224;2023-09-30T20:10:17;8.40;;;2.40;;
5491;SDS011;2768;53.540;10.224;2023-09-30T20:16:10;7.50;;;3.30;;
5491;SDS011;2768;53.540;10.224;2023-09-30T20:22:05;4.73;;;2.60;;
5491;SDS011;2768;53.540;10.224;2023-09-30T20:27:58;7.30;;;3.00;;
5491;SDS011;2768;53.540;10.224;2023-09-30T20:33:57;5.00;;;2.67;;
5491;SDS011;2768;53.540;10.224;2023-09-30T20:39:51;6.47;;;2.70;;
5491;SDS011;2768;53.540;10.224;2023-09-30T20:45:45;9.20;;;3.87;;
5491;SDS011;2768;53.540;10.224;2023-09-30T20:51:38;6.90;;;3.67;;
5491;SDS011;2768;53.540;10.224;2023-09-30T20:57:33;6.93;;;2.97;;
5491;SDS011;2768;53.540;10.224;2023-09-30T21:03:26;7.23;;;3.10;;
5491;SDS011;2768;53.540;10.224;2023-09-30T21:09:19;7.00;;;3.27;;
5491;SDS011;2768;53.540;10.224;2023-09-30T21:15:14;11.20;;;3.40;;
5491;SDS011;2768;53.540;10.224;2023-09-30T21:21:09;5.67;;;3.17;;
5491;SDS011;2768;53.540;10.224;2023-09-30T21:27:03;8.80;;;2.87;;
5491;SDS011;2768;53.540;10.224;2023-09-30T21:32:58;5.03;;;2.80;;
5491;SDS011;2768;53.540;10.224;2023-09-30T21:38:51;7.60;;;3.30;;
5491;SDS011;2768;53.540;10.224;2023-09-30T21:44:45;6.23;;;3.10;;
5491;SDS011;2768;53.540;10.224;2023-09-30T21:50:39;6.17;;;2.70;;
5491;SDS011;2768;53.540;10.224;2023-09-30T21:56:32;4.77;;;2.80;;
5491;SDS011;2768;53.540;10.224;2023-09-30T22:02:26;4.83;;;2.60;;
5491;SDS011;2768;53.540;10.224;2023-09-30T22:08:21;7.57;;;2.90;;
5491;SDS011;2768;53.540;10.224;2023-09-30T22:14:15;7.10;;;3.10;;
5491;SDS011;2768;53.540;10.224;2023-09-30T22:20:09;6.80;;;3.30;;
5491;SDS011;2768;53.540;10.224;2023-09-30T22:26:04;5.23;;;2.83;;
5491;SDS011;2768;53.540;10.224;2023-09-30T22:31:57;7.10;;;3.57;;
5491;SDS011;2768;53.540;10.224;2023-09-30T22:37:51;5.57;;;3.57;;
5491;SDS011;2768;53.540;10.224;2023-09-30T22:43:47;6.20;;;3.10;;
5491;SDS011;2768;53.540;10.224;2023-09-30T22:49:41;6.20;;;3.43;;
5491;SDS011;2768;53.540;10.224;2023-09-30T22:55:34;7.80;;;3.77;;
5491;SDS011;2768;53.540;10.224;2023-09-30T23:01:31;6.47;;;3.93;;
5491;SDS011;2768;53.540;10.224;2023-09-30T23:07:24;7.30;;;3.90;;
5491;SDS011;2768;53.540;10.224;2023-09-30T23:13:17;5.83;;;2.97;;
5491;SDS011;2768;53.540;10.224;2023-09-30T23:19:12;8.83;;;3.60;;
5491;SDS011;2768;53.540;10.224;2023-09-30T23:25:08;5.60;;;3.17;;
5491;SDS011;2768;53.540;10.224;2023-09-30T23:31:07;7.73;;;3.37;;
5491;SDS011;2768;53.540;10.224;2023-09-30T23:37:02;5.00;;;3.07;;
5491;SDS011;2768;53.540;10.224;2023-09-30T23:42:59;6.60;;;3.30;;
5491;SDS011;2768;53.540;10.224;2023-09-30T23:48:53;5.63;;;3.00;;
5491;SDS011;2768;53.540;10.224;2023-09-30T23:54:48;6.27;;;3.40;;
